Kirkby-in-Ashfield, United Kingdom
Current Conditions -  °F | °C
As of 2:20 PM on Saturday 25 Oct 2014 (Local Time) from EGNX Reporting Station
Broken Clouds Broken Clouds  
Wind Chill: 57°   Ceiling: 2500
Heat Index: 57°   Visibility: 6mi
Dew Point: 48°   Wind: 16mph
Humidity: 72%   Direction: 220°SW
Pressure: 29.97"   Gusts: NA
Location:  53.1°N, 1.26°W
Report Text: EGNX 251320Z 22014KT 9999 FEW020 BKN025 14/09 Q1015
Loading
Personal Weather Stations






























Interactive Weather Map New forecast layout! Learn more

10-Day Weather Forecast

Advertisements
Track Severe Weather on mobile